sensor_id;sensor_type;location;lat;lon;timestamp;P1;durP1;ratioP1;P2;durP2;ratioP2
50219;SDS011;36110;51.536;7.562;2024-03-23T00:54:15;5.10;;;3.22;;
50219;SDS011;36110;51.536;7.562;2024-03-23T00:56:41;5.07;;;3.55;;
50219;SDS011;36110;51.536;7.562;2024-03-23T00:59:06;4.68;;;3.35;;
50219;SDS011;36110;51.536;7.562;2024-03-23T01:01:32;3.75;;;3.28;;
50219;SDS011;36110;51.536;7.562;2024-03-23T01:03:57;4.10;;;3.35;;
50219;SDS011;36110;51.536;7.562;2024-03-23T01:06:22;5.45;;;3.30;;
50219;SDS011;36110;51.536;7.562;2024-03-23T01:08:48;6.95;;;3.47;;
50219;SDS011;36110;51.536;7.562;2024-03-23T01:11:14;5.45;;;3.40;;
50219;SDS011;36110;51.536;7.562;2024-03-23T01:13:39;6.45;;;3.38;;
50219;SDS011;36110;51.536;7.562;2024-03-23T01:16:04;6.25;;;3.38;;
50219;SDS011;36110;51.536;7.562;2024-03-23T01:18:30;8.27;;;3.83;;
50219;SDS011;36110;51.536;7.562;2024-03-23T01:20:55;3.47;;;2.83;;
50219;SDS011;36110;51.536;7.562;2024-03-23T01:23:20;6.13;;;3.05;;
50219;SDS011;36110;51.536;7.562;2024-03-23T01:25:51;4.47;;;3.30;;
50219;SDS011;36110;51.536;7.562;2024-03-23T01:28:17;3.13;;;2.60;;
50219;SDS011;36110;51.536;7.562;2024-03-23T01:30:42;3.47;;;2.85;;
50219;SDS011;36110;51.536;7.562;2024-03-23T01:33:07;4.28;;;3.10;;
50219;SDS011;36110;51.536;7.562;2024-03-23T01:35:33;3.00;;;2.70;;
50219;SDS011;36110;51.536;7.562;2024-03-23T01:37:58;3.85;;;2.97;;
50219;SDS011;36110;51.536;7.562;2024-03-23T01:40:23;4.35;;;2.70;;
50219;SDS011;36110;51.536;7.562;2024-03-23T01:42:58;4.03;;;2.80;;
50219;SDS011;36110;51.536;7.562;2024-03-23T01:45:30;4.32;;;2.95;;
50219;SDS011;36110;51.536;7.562;2024-03-23T01:47:56;3.10;;;2.70;;
50219;SDS011;36110;51.536;7.562;2024-03-23T01:50:22;4.53;;;2.83;;
50219;SDS011;36110;51.536;7.562;2024-03-23T01:52:48;4.72;;;2.95;;
50219;SDS011;36110;51.536;7.562;2024-03-23T01:55:14;3.95;;;3.17;;
50219;SDS011;36110;51.536;7.562;2024-03-23T01:57:39;3.10;;;2.80;;
50219;SDS011;36110;51.536;7.562;2024-03-23T02:00:05;4.93;;;2.70;;
50219;SDS011;36110;51.536;7.562;2024-03-23T02:02:31;3.60;;;2.95;;
50219;SDS011;36110;51.536;7.562;2024-03-23T02:04:56;3.10;;;2.60;;
50219;SDS011;36110;51.536;7.562;2024-03-23T02:07:22;3.55;;;2.72;;
50219;SDS011;36110;51.536;7.562;2024-03-23T02:09:49;4.88;;;3.00;;
50219;SDS011;36110;51.536;7.562;2024-03-23T02:12:15;2.72;;;2.40;;
50219;SDS011;36110;51.536;7.562;2024-03-23T02:14:40;4.28;;;2.50;;
50219;SDS011;36110;51.536;7.562;2024-03-23T02:17:06;5.60;;;3.00;;
50219;SDS011;36110;51.536;7.562;2024-03-23T02:19:31;5.70;;;2.85;;
50219;SDS011;36110;51.536;7.562;2024-03-23T02:21:56;9.63;;;3.22;;
50219;SDS011;36110;51.536;7.562;2024-03-23T02:24:21;8.48;;;2.70;;
50219;SDS011;36110;51.536;7.562;2024-03-23T02:26:47;5.28;;;2.47;;
50219;SDS011;36110;51.536;7.562;2024-03-23T02:29:13;5.13;;;2.50;;
50219;SDS011;36110;51.536;7.562;2024-03-23T02:31:39;2.95;;;2.60;;
50219;SDS011;36110;51.536;7.562;2024-03-23T02:34:04;3.63;;;2.78;;
50219;SDS011;36110;51.536;7.562;2024-03-23T02:36:29;2.88;;;2.58;;
50219;SDS011;36110;51.536;7.562;2024-03-23T02:38:56;2.60;;;2.28;;
50219;SDS011;36110;51.536;7.562;2024-03-23T02:41:21;9.57;;;3.17;;
50219;SDS011;36110;51.536;7.562;2024-03-23T02:43:51;4.90;;;2.53;;
50219;SDS011;36110;51.536;7.562;2024-03-23T02:46:16;5.97;;;2.70;;
50219;SDS011;36110;51.536;7.562;2024-03-23T02:48:42;5.15;;;2.55;;
50219;SDS011;36110;51.536;7.562;2024-03-23T02:51:07;4.35;;;2.25;;
50219;SDS011;36110;51.536;7.562;2024-03-23T02:53:32;3.08;;;2.50;;
50219;SDS011;36110;51.536;7.562;2024-03-23T02:55:59;3.05;;;2.22;;
50219;SDS011;36110;51.536;7.562;2024-03-23T02:58:24;3.42;;;2.63;;
50219;SDS011;36110;51.536;7.562;2024-03-23T03:00:49;2.75;;;2.55;;
50219;SDS011;36110;51.536;7.562;2024-03-23T03:03:15;6.53;;;2.92;;
50219;SDS011;36110;51.536;7.562;2024-03-23T03:05:40;3.08;;;2.33;;
50219;SDS011;36110;51.536;7.562;2024-03-23T03:08:05;3.22;;;2.75;;
50219;SDS011;36110;51.536;7.562;2024-03-23T03:10:31;3.88;;;2.63;;
50219;SDS011;36110;51.536;7.562;2024-03-23T03:12:59;2.75;;;2.30;;
50219;SDS011;36110;51.536;7.562;2024-03-23T03:15:25;5.20;;;2.65;;
50219;SDS011;36110;51.536;7.562;2024-03-23T03:17:50;3.30;;;2.40;;
50219;SDS011;36110;51.536;7.562;2024-03-23T03:20:15;2.88;;;2.45;;
50219;SDS011;36110;51.536;7.562;2024-03-23T03:22:42;4.93;;;2.55;;
50219;SDS011;36110;51.536;7.562;2024-03-23T03:25:08;3.15;;;2.28;;
50219;SDS011;36110;51.536;7.562;2024-03-23T03:27:33;3.03;;;2.20;;
50219;SDS011;36110;51.536;7.562;2024-03-23T03:29:59;2.60;;;2.25;;
50219;SDS011;36110;51.536;7.562;2024-03-23T03:32:26;5.35;;;2.78;;
50219;SDS011;36110;51.536;7.562;2024-03-23T03:34:52;3.63;;;2.63;;
50219;SDS011;36110;51.536;7.562;2024-03-23T03:37:18;4.43;;;2.22;;
50219;SDS011;36110;51.536;7.562;2024-03-23T03:39:43;2.60;;;2.40;;
50219;SDS011;36110;51.536;7.562;2024-03-23T03:42:08;2.53;;;2.33;;
50219;SDS011;36110;51.536;7.562;2024-03-23T03:44:34;2.60;;;2.40;;
50219;SDS011;36110;51.536;7.562;2024-03-23T03:46:59;3.45;;;2.20;;
50219;SDS011;36110;51.536;7.562;2024-03-23T03:49:25;16.35;;;6.95;;
50219;SDS011;36110;51.536;7.562;2024-03-23T03:51:50;13.13;;;3.78;;
50219;SDS011;36110;51.536;7.562;2024-03-23T03:54:15;2.58;;;2.20;;
50219;SDS011;36110;51.536;7.562;2024-03-23T03:56:41;4.50;;;2.28;;
50219;SDS011;36110;51.536;7.562;2024-03-23T03:59:06;3.63;;;2.22;;
50219;SDS011;36110;51.536;7.562;2024-03-23T04:01:31;2.97;;;2.20;;
50219;SDS011;36110;51.536;7.562;2024-03-23T04:03:57;2.35;;;2.15;;
50219;SDS011;36110;51.536;7.562;2024-03-23T04:06:22;3.83;;;2.30;;
50219;SDS011;36110;51.536;7.562;2024-03-23T04:08:48;2.55;;;2.13;;
50219;SDS011;36110;51.536;7.562;2024-03-23T04:11:13;3.25;;;2.10;;
50219;SDS011;36110;51.536;7.562;2024-03-23T04:13:39;5.82;;;2.72;;
50219;SDS011;36110;51.536;7.562;2024-03-23T04:16:06;4.88;;;2.58;;
50219;SDS011;36110;51.536;7.562;2024-03-23T04:18:31;3.15;;;2.05;;
50219;SDS011;36110;51.536;7.562;2024-03-23T04:20:57;2.45;;;1.83;;
50219;SDS011;36110;51.536;7.562;2024-03-23T04:23:22;3.00;;;1.95;;
50219;SDS011;36110;51.536;7.562;2024-03-23T04:25:48;2.55;;;2.05;;
50219;SDS011;36110;51.536;7.562;2024-03-23T04:28:13;3.20;;;2.08;;
50219;SDS011;36110;51.536;7.562;2024-03-23T04:30:38;3.42;;;2.10;;
50219;SDS011;36110;51.536;7.562;2024-03-23T04:33:04;9.80;;;2.30;;
50219;SDS011;36110;51.536;7.562;2024-03-23T04:35:30;3.50;;;2.00;;
50219;SDS011;36110;51.536;7.562;2024-03-23T04:37:55;2.63;;;1.92;;
50219;SDS011;36110;51.536;7.562;2024-03-23T04:40:20;11.07;;;2.53;;
50219;SDS011;36110;51.536;7.562;2024-03-23T04:42:46;3.17;;;2.13;;
50219;SDS011;36110;51.536;7.562;2024-03-23T04:45:11;13.80;;;3.10;;
50219;SDS011;36110;51.536;7.562;2024-03-23T04:47:37;2.10;;;1.90;;
50219;SDS011;36110;51.536;7.562;2024-03-23T04:50:03;3.35;;;2.10;;
50219;SDS011;36110;51.536;7.562;2024-03-23T04:52:29;9.48;;;2.58;;
50219;SDS011;36110;51.536;7.562;2024-03-23T04:54:54;3.60;;;2.00;;
50219;SDS011;36110;51.536;7.562;2024-03-23T04:57:20;2.47;;;1.80;;
50219;SDS011;36110;51.536;7.562;2024-03-23T04:59:45;2.47;;;1.80;;
50219;SDS011;36110;51.536;7.562;2024-03-23T05:02:10;7.30;;;2.50;;
50219;SDS011;36110;51.536;7.562;2024-03-23T05:04:36;5.95;;;2.88;;
50219;SDS011;36110;51.536;7.562;2024-03-23T05:07:02;7.38;;;2.25;;
50219;SDS011;36110;51.536;7.562;2024-03-23T05:09:29;5.57;;;2.30;;
50219;SDS011;36110;51.536;7.562;2024-03-23T05:11:55;13.38;;;3.20;;
50219;SDS011;36110;51.536;7.562;2024-03-23T05:14:21;2.05;;;1.80;;
50219;SDS011;36110;51.536;7.562;2024-03-23T05:16:46;6.25;;;2.55;;
50219;SDS011;36110;51.536;7.562;2024-03-23T05:19:12;5.05;;;2.03;;
50219;SDS011;36110;51.536;7.562;2024-03-23T05:21:37;2.47;;;2.03;;
50219;SDS011;36110;51.536;7.562;2024-03-23T05:24:02;2.35;;;1.90;;
50219;SDS011;36110;51.536;7.562;2024-03-23T05:26:28;2.75;;;1.95;;
50219;SDS011;36110;51.536;7.562;2024-03-23T05:28:53;2.67;;;1.75;;
50219;SDS011;36110;51.536;7.562;2024-03-23T05:31:23;5.30;;;1.80;;
50219;SDS011;36110;51.536;7.562;2024-03-23T05:33:51;5.60;;;2.15;;
50219;SDS011;36110;51.536;7.562;2024-03-23T05:36:16;2.80;;;1.98;;
50219;SDS011;36110;51.536;7.562;2024-03-23T05:38:42;7.47;;;2.63;;
50219;SDS011;36110;51.536;7.562;2024-03-23T05:41:07;2.10;;;1.75;;
50219;SDS011;36110;51.536;7.562;2024-03-23T05:43:33;3.75;;;1.80;;
50219;SDS011;36110;51.536;7.562;2024-03-23T05:45:59;1.80;;;1.70;;
50219;SDS011;36110;51.536;7.562;2024-03-23T05:48:28;2.22;;;1.70;;
50219;SDS011;36110;51.536;7.562;2024-03-23T05:50:55;11.07;;;3.78;;
50219;SDS011;36110;51.536;7.562;2024-03-23T05:53:20;7.90;;;3.38;;
50219;SDS011;36110;51.536;7.562;2024-03-23T05:55:46;3.13;;;1.88;;
50219;SDS011;36110;51.536;7.562;2024-03-23T05:58:12;11.38;;;3.75;;
50219;SDS011;36110;51.536;7.562;2024-03-23T06:00:39;7.00;;;2.78;;
50219;SDS011;36110;51.536;7.562;2024-03-23T06:03:05;3.75;;;2.25;;
50219;SDS011;36110;51.536;7.562;2024-03-23T06:05:30;2.95;;;1.85;;
50219;SDS011;36110;51.536;7.562;2024-03-23T06:07:56;13.05;;;4.53;;
50219;SDS011;36110;51.536;7.562;2024-03-23T06:10:21;7.80;;;3.97;;
50219;SDS011;36110;51.536;7.562;2024-03-23T06:12:47;3.45;;;1.95;;
50219;SDS011;36110;51.536;7.562;2024-03-23T06:15:14;11.48;;;4.65;;
50219;SDS011;36110;51.536;7.562;2024-03-23T06:17:39;7.10;;;3.50;;
50219;SDS011;36110;51.536;7.562;2024-03-23T06:20:05;5.53;;;3.35;;
50219;SDS011;36110;51.536;7.562;2024-03-23T06:22:35;15.05;;;7.72;;
50219;SDS011;36110;51.536;7.562;2024-03-23T06:25:00;2.05;;;1.70;;
50219;SDS011;36110;51.536;7.562;2024-03-23T06:27:26;3.00;;;1.90;;
50219;SDS011;36110;51.536;7.562;2024-03-23T06:29:51;6.20;;;2.97;;
50219;SDS011;36110;51.536;7.562;2024-03-23T06:32:16;12.18;;;5.35;;
50219;SDS011;36110;51.536;7.562;2024-03-23T06:34:42;9.10;;;5.55;;
50219;SDS011;36110;51.536;7.562;2024-03-23T06:37:07;2.70;;;2.08;;
50219;SDS011;36110;51.536;7.562;2024-03-23T06:39:34;3.53;;;2.22;;
50219;SDS011;36110;51.536;7.562;2024-03-23T06:42:03;7.00;;;4.78;;
50219;SDS011;36110;51.536;7.562;2024-03-23T06:44:29;17.50;;;8.93;;
50219;SDS011;36110;51.536;7.562;2024-03-23T06:46:55;4.03;;;2.90;;
50219;SDS011;36110;51.536;7.562;2024-03-23T06:49:20;12.15;;;8.10;;
50219;SDS011;36110;51.536;7.562;2024-03-23T06:51:46;14.00;;;6.90;;
50219;SDS011;36110;51.536;7.562;2024-03-23T06:54:11;2.40;;;2.20;;
50219;SDS011;36110;51.536;7.562;2024-03-23T06:56:37;18.25;;;10.40;;
50219;SDS011;36110;51.536;7.562;2024-03-23T06:59:02;13.63;;;8.90;;
50219;SDS011;36110;51.536;7.562;2024-03-23T07:01:27;3.38;;;2.58;;
50219;SDS011;36110;51.536;7.562;2024-03-23T07:03:54;6.65;;;4.43;;
50219;SDS011;36110;51.536;7.562;2024-03-23T07:06:19;5.03;;;2.80;;
50219;SDS011;36110;51.536;7.562;2024-03-23T07:08:45;5.18;;;3.88;;
50219;SDS011;36110;51.536;7.562;2024-03-23T07:11:10;6.97;;;4.28;;
50219;SDS011;36110;51.536;7.562;2024-03-23T07:13:35;9.18;;;5.97;;
50219;SDS011;36110;51.536;7.562;2024-03-23T07:16:01;8.25;;;4.95;;
50219;SDS011;36110;51.536;7.562;2024-03-23T07:18:26;17.10;;;10.30;;
50219;SDS011;36110;51.536;7.562;2024-03-23T07:20:52;17.02;;;9.82;;
50219;SDS011;36110;51.536;7.562;2024-03-23T07:23:24;4.38;;;3.47;;
50219;SDS011;36110;51.536;7.562;2024-03-23T07:26:03;21.25;;;12.50;;
50219;SDS011;36110;51.536;7.562;2024-03-23T07:28:30;27.30;;;13.60;;
50219;SDS011;36110;51.536;7.562;2024-03-23T07:31:06;4.82;;;3.97;;
50219;SDS011;36110;51.536;7.562;2024-03-23T07:33:34;26.30;;;17.17;;
50219;SDS011;36110;51.536;7.562;2024-03-23T07:36:00;11.02;;;7.75;;
50219;SDS011;36110;51.536;7.562;2024-03-23T07:38:28;15.18;;;10.20;;
50219;SDS011;36110;51.536;7.562;2024-03-23T07:41:04;4.35;;;3.38;;
50219;SDS011;36110;51.536;7.562;2024-03-23T07:43:33;5.07;;;3.95;;
50219;SDS011;36110;51.536;7.562;2024-03-23T07:45:59;10.80;;;7.07;;
50219;SDS011;36110;51.536;7.562;2024-03-23T07:48:25;6.97;;;5.13;;
50219;SDS011;36110;51.536;7.562;2024-03-23T07:53:32;11.82;;;5.90;;
50219;SDS011;36110;51.536;7.562;2024-03-23T07:55:59;6.03;;;4.90;;
50219;SDS011;36110;51.536;7.562;2024-03-23T07:58:28;17.30;;;9.73;;
50219;SDS011;36110;51.536;7.562;2024-03-23T08:01:03;7.22;;;3.90;;
50219;SDS011;36110;51.536;7.562;2024-03-23T08:03:39;5.00;;;3.83;;
50219;SDS011;36110;51.536;7.562;2024-03-23T08:08:45;9.15;;;5.22;;
50219;SDS011;36110;51.536;7.562;2024-03-23T08:11:11;4.38;;;3.83;;
50219;SDS011;36110;51.536;7.562;2024-03-23T08:13:39;8.63;;;5.38;;
50219;SDS011;36110;51.536;7.562;2024-03-23T08:16:05;5.03;;;3.95;;
50219;SDS011;36110;51.536;7.562;2024-03-23T08:18:31;15.93;;;7.15;;
50219;SDS011;36110;51.536;7.562;2024-03-23T08:21:00;12.05;;;7.32;;
50219;SDS011;36110;51.536;7.562;2024-03-23T08:23:30;19.23;;;10.93;;
50219;SDS011;36110;51.536;7.562;2024-03-23T08:25:58;21.85;;;11.30;;
50219;SDS011;36110;51.536;7.562;2024-03-23T08:28:25;16.48;;;10.00;;
50219;SDS011;36110;51.536;7.562;2024-03-23T08:30:52;14.90;;;9.25;;
50219;SDS011;36110;51.536;7.562;2024-03-23T08:33:18;18.45;;;9.57;;
50219;SDS011;36110;51.536;7.562;2024-03-23T08:35:52;14.77;;;8.60;;
50219;SDS011;36110;51.536;7.562;2024-03-23T08:38:18;19.02;;;9.32;;
50219;SDS011;36110;51.536;7.562;2024-03-23T08:40:44;17.40;;;10.25;;
50219;SDS011;36110;51.536;7.562;2024-03-23T08:43:09;13.23;;;9.50;;
50219;SDS011;36110;51.536;7.562;2024-03-23T08:45:34;24.67;;;9.52;;
50219;SDS011;36110;51.536;7.562;2024-03-23T08:48:00;16.45;;;9.57;;
50219;SDS011;36110;51.536;7.562;2024-03-23T08:50:25;15.50;;;9.15;;
50219;SDS011;36110;51.536;7.562;2024-03-23T08:52:50;16.50;;;8.50;;
50219;SDS011;36110;51.536;7.562;2024-03-23T08:55:16;16.88;;;8.40;;
50219;SDS011;36110;51.536;7.562;2024-03-23T08:57:41;16.90;;;9.65;;
50219;SDS011;36110;51.536;7.562;2024-03-23T09:00:07;16.77;;;8.80;;
50219;SDS011;36110;51.536;7.562;2024-03-23T09:02:34;18.23;;;9.77;;
50219;SDS011;36110;51.536;7.562;2024-03-23T09:04:59;17.85;;;7.75;;
50219;SDS011;36110;51.536;7.562;2024-03-23T09:07:29;13.45;;;7.60;;
50219;SDS011;36110;51.536;7.562;2024-03-23T09:09:57;14.38;;;9.32;;
50219;SDS011;36110;51.536;7.562;2024-03-23T09:12:23;15.23;;;8.88;;
50219;SDS011;36110;51.536;7.562;2024-03-23T09:14:49;18.00;;;8.60;;
50219;SDS011;36110;51.536;7.562;2024-03-23T09:17:15;15.85;;;7.43;;
50219;SDS011;36110;51.536;7.562;2024-03-23T09:19:40;13.52;;;8.30;;
50219;SDS011;36110;51.536;7.562;2024-03-23T09:22:06;14.27;;;7.30;;
50219;SDS011;36110;51.536;7.562;2024-03-23T09:24:31;14.80;;;8.20;;
50219;SDS011;36110;51.536;7.562;2024-03-23T09:26:57;19.35;;;7.55;;
50219;SDS011;36110;51.536;7.562;2024-03-23T09:29:22;12.50;;;8.43;;
50219;SDS011;36110;51.536;7.562;2024-03-23T09:31:48;15.52;;;5.60;;
50219;SDS011;36110;51.536;7.562;2024-03-23T09:34:13;14.77;;;6.97;;
50219;SDS011;36110;51.536;7.562;2024-03-23T09:36:39;13.18;;;9.13;;
50219;SDS011;36110;51.536;7.562;2024-03-23T09:39:04;15.15;;;6.32;;
50219;SDS011;36110;51.536;7.562;2024-03-23T09:41:31;12.15;;;7.55;;
50219;SDS011;36110;51.536;7.562;2024-03-23T09:43:56;12.13;;;6.28;;
50219;SDS011;36110;51.536;7.562;2024-03-23T09:46:22;12.32;;;4.20;;
50219;SDS011;36110;51.536;7.562;2024-03-23T09:48:48;10.80;;;5.90;;
50219;SDS011;36110;51.536;7.562;2024-03-23T09:51:13;12.10;;;8.38;;
50219;SDS011;36110;51.536;7.562;2024-03-23T09:53:39;14.98;;;7.32;;
50219;SDS011;36110;51.536;7.562;2024-03-23T09:56:04;11.88;;;5.72;;
50219;SDS011;36110;51.536;7.562;2024-03-23T09:58:29;14.13;;;4.15;;
50219;SDS011;36110;51.536;7.562;2024-03-23T10:00:57;21.50;;;4.10;;
50219;SDS011;36110;51.536;7.562;2024-03-23T10:03:22;12.43;;;3.50;;
50219;SDS011;36110;51.536;7.562;2024-03-23T10:05:47;15.35;;;3.95;;
50219;SDS011;36110;51.536;7.562;2024-03-23T10:08:25;12.45;;;3.33;;
50219;SDS011;36110;51.536;7.562;2024-03-23T10:10:51;12.93;;;4.03;;
50219;SDS011;36110;51.536;7.562;2024-03-23T10:13:26;11.65;;;4.28;;
50219;SDS011;36110;51.536;7.562;2024-03-23T10:15:56;14.48;;;3.90;;
50219;SDS011;36110;51.536;7.562;2024-03-23T10:18:22;16.23;;;3.50;;
50219;SDS011;36110;51.536;7.562;2024-03-23T10:21:05;15.45;;;4.22;;
50219;SDS011;36110;51.536;7.562;2024-03-23T10:23:35;8.25;;;3.28;;
50219;SDS011;36110;51.536;7.562;2024-03-23T10:28:52;11.15;;;3.42;;
50219;SDS011;36110;51.536;7.562;2024-03-23T10:31:32;14.65;;;4.15;;
50219;SDS011;36110;51.536;7.562;2024-03-23T10:33:58;12.45;;;3.72;;
50219;SDS011;36110;51.536;7.562;2024-03-23T10:36:25;12.65;;;4.07;;
50219;SDS011;36110;51.536;7.562;2024-03-23T10:38:51;12.88;;;3.30;;
50219;SDS011;36110;51.536;7.562;2024-03-23T10:41:18;10.82;;;4.10;;
50219;SDS011;36110;51.536;7.562;2024-03-23T10:43:48;10.93;;;3.40;;
50219;SDS011;36110;51.536;7.562;2024-03-23T10:46:14;9.70;;;3.63;;
50219;SDS011;36110;51.536;7.562;2024-03-23T10:48:39;7.43;;;3.30;;
50219;SDS011;36110;51.536;7.562;2024-03-23T10:51:08;8.65;;;3.30;;
50219;SDS011;36110;51.536;7.562;2024-03-23T10:53:34;11.60;;;3.72;;
50219;SDS011;36110;51.536;7.562;2024-03-23T10:56:01;8.95;;;3.35;;
50219;SDS011;36110;51.536;7.562;2024-03-23T10:58:29;8.55;;;3.20;;
50219;SDS011;36110;51.536;7.562;2024-03-23T11:00:57;7.93;;;3.70;;
50219;SDS011;36110;51.536;7.562;2024-03-23T11:03:32;12.73;;;3.78;;
50219;SDS011;36110;51.536;7.562;2024-03-23T11:05:59;11.35;;;3.67;;
50219;SDS011;36110;51.536;7.562;2024-03-23T11:08:32;12.95;;;4.05;;
50219;SDS011;36110;51.536;7.562;2024-03-23T11:13:47;7.95;;;3.10;;
50219;SDS011;36110;51.536;7.562;2024-03-23T11:18:39;11.55;;;3.83;;
50219;SDS011;36110;51.536;7.562;2024-03-23T11:21:06;9.77;;;3.30;;
50219;SDS011;36110;51.536;7.562;2024-03-23T11:23:31;6.95;;;3.50;;
50219;SDS011;36110;51.536;7.562;2024-03-23T11:25:57;11.23;;;3.83;;
50219;SDS011;36110;51.536;7.562;2024-03-23T11:28:22;17.75;;;5.55;;
50219;SDS011;36110;51.536;7.562;2024-03-23T11:30:47;11.00;;;3.70;;
50219;SDS011;36110;51.536;7.562;2024-03-23T11:33:13;11.48;;;5.50;;
50219;SDS011;36110;51.536;7.562;2024-03-23T11:35:39;11.27;;;5.05;;
50219;SDS011;36110;51.536;7.562;2024-03-23T11:38:12;10.40;;;4.63;;
50219;SDS011;36110;51.536;7.562;2024-03-23T11:43:05;14.18;;;4.60;;
50219;SDS011;36110;51.536;7.562;2024-03-23T11:45:35;12.70;;;5.20;;
50219;SDS011;36110;51.536;7.562;2024-03-23T11:48:02;6.72;;;2.28;;
50219;SDS011;36110;51.536;7.562;2024-03-23T11:50:29;13.77;;;4.95;;
50219;SDS011;36110;51.536;7.562;2024-03-23T11:53:14;7.82;;;3.75;;
50219;SDS011;36110;51.536;7.562;2024-03-23T11:55:50;9.20;;;4.20;;
50219;SDS011;36110;51.536;7.562;2024-03-23T11:58:24;7.20;;;3.38;;
50219;SDS011;36110;51.536;7.562;2024-03-23T12:00:59;7.53;;;3.55;;
50219;SDS011;36110;51.536;7.562;2024-03-23T12:03:29;3.60;;;2.38;;
50219;SDS011;36110;51.536;7.562;2024-03-23T12:05:55;6.80;;;3.28;;
50219;SDS011;36110;51.536;7.562;2024-03-23T12:08:23;6.35;;;1.63;;
50219;SDS011;36110;51.536;7.562;2024-03-23T12:11:05;5.85;;;2.28;;
50219;SDS011;36110;51.536;7.562;2024-03-23T12:13:39;4.65;;;1.67;;
50219;SDS011;36110;51.536;7.562;2024-03-23T12:18:42;5.70;;;2.10;;
50219;SDS011;36110;51.536;7.562;2024-03-23T12:21:08;5.38;;;1.55;;
50219;SDS011;36110;51.536;7.562;2024-03-23T12:23:34;5.75;;;1.95;;
50219;SDS011;36110;51.536;7.562;2024-03-23T12:26:00;5.03;;;1.73;;
50219;SDS011;36110;51.536;7.562;2024-03-23T12:28:26;5.15;;;1.55;;
50219;SDS011;36110;51.536;7.562;2024-03-23T12:30:51;9.82;;;2.13;;
50219;SDS011;36110;51.536;7.562;2024-03-23T12:33:20;4.15;;;1.65;;
50219;SDS011;36110;51.536;7.562;2024-03-23T12:35:46;6.78;;;1.70;;
50219;SDS011;36110;51.536;7.562;2024-03-23T12:38:12;3.50;;;1.55;;
50219;SDS011;36110;51.536;7.562;2024-03-23T12:40:37;4.50;;;1.70;;
50219;SDS011;36110;51.536;7.562;2024-03-23T12:43:02;5.32;;;1.67;;
50219;SDS011;36110;51.536;7.562;2024-03-23T12:45:28;3.55;;;1.73;;
50219;SDS011;36110;51.536;7.562;2024-03-23T12:47:53;3.88;;;1.73;;
50219;SDS011;36110;51.536;7.562;2024-03-23T12:50:19;8.40;;;2.08;;
50219;SDS011;36110;51.536;7.562;2024-03-23T12:52:44;5.35;;;1.95;;
50219;SDS011;36110;51.536;7.562;2024-03-23T12:55:10;5.88;;;1.77;;
50219;SDS011;36110;51.536;7.562;2024-03-23T12:57:35;4.03;;;1.77;;
50219;SDS011;36110;51.536;7.562;2024-03-23T13:00:01;5.38;;;2.03;;
50219;SDS011;36110;51.536;7.562;2024-03-23T13:02:28;3.65;;;1.65;;
50219;SDS011;36110;51.536;7.562;2024-03-23T13:04:54;3.47;;;1.65;;
50219;SDS011;36110;51.536;7.562;2024-03-23T13:07:20;3.25;;;1.55;;
50219;SDS011;36110;51.536;7.562;2024-03-23T13:09:46;3.65;;;1.50;;
50219;SDS011;36110;51.536;7.562;2024-03-23T13:12:12;5.95;;;1.50;;
50219;SDS011;36110;51.536;7.562;2024-03-23T13:14:38;6.15;;;1.60;;
50219;SDS011;36110;51.536;7.562;2024-03-23T13:17:04;5.88;;;2.00;;
50219;SDS011;36110;51.536;7.562;2024-03-23T13:19:29;4.70;;;1.70;;
50219;SDS011;36110;51.536;7.562;2024-03-23T13:21:59;1.83;;;1.40;;
50219;SDS011;36110;51.536;7.562;2024-03-23T13:24:25;4.38;;;1.77;;
50219;SDS011;36110;51.536;7.562;2024-03-23T13:26:51;4.85;;;2.20;;
50219;SDS011;36110;51.536;7.562;2024-03-23T13:29:20;3.40;;;1.45;;
50219;SDS011;36110;51.536;7.562;2024-03-23T13:31:47;7.68;;;2.05;;
50219;SDS011;36110;51.536;7.562;2024-03-23T13:34:12;3.53;;;2.03;;
50219;SDS011;36110;51.536;7.562;2024-03-23T13:36:40;4.57;;;1.73;;
50219;SDS011;36110;51.536;7.562;2024-03-23T13:39:06;5.18;;;1.90;;
50219;SDS011;36110;51.536;7.562;2024-03-23T13:41:36;5.63;;;1.83;;
50219;SDS011;36110;51.536;7.562;2024-03-23T13:44:09;5.43;;;1.80;;
50219;SDS011;36110;51.536;7.562;2024-03-23T13:46:41;4.38;;;1.77;;
50219;SDS011;36110;51.536;7.562;2024-03-23T13:49:26;6.65;;;2.42;;
50219;SDS011;36110;51.536;7.562;2024-03-23T13:51:56;3.90;;;1.58;;
50219;SDS011;36110;51.536;7.562;2024-03-23T13:54:28;5.43;;;2.13;;
50219;SDS011;36110;51.536;7.562;2024-03-23T13:56:54;4.20;;;1.35;;
50219;SDS011;36110;51.536;7.562;2024-03-23T13:59:20;5.13;;;1.70;;
50219;SDS011;36110;51.536;7.562;2024-03-23T14:01:48;3.40;;;1.50;;
50219;SDS011;36110;51.536;7.562;2024-03-23T14:04:13;5.05;;;2.00;;
50219;SDS011;36110;51.536;7.562;2024-03-23T14:06:41;4.03;;;1.70;;
50219;SDS011;36110;51.536;7.562;2024-03-23T14:09:06;5.13;;;1.60;;
50219;SDS011;36110;51.536;7.562;2024-03-23T14:11:34;2.55;;;1.63;;
50219;SDS011;36110;51.536;7.562;2024-03-23T14:14:00;4.07;;;2.17;;
50219;SDS011;36110;51.536;7.562;2024-03-23T14:16:25;4.55;;;1.58;;
50219;SDS011;36110;51.536;7.562;2024-03-23T14:18:50;3.83;;;1.60;;
50219;SDS011;36110;51.536;7.562;2024-03-23T14:21:16;3.10;;;1.70;;
50219;SDS011;36110;51.536;7.562;2024-03-23T14:23:42;5.68;;;1.60;;
50219;SDS011;36110;51.536;7.562;2024-03-23T14:26:07;7.47;;;2.40;;
50219;SDS011;36110;51.536;7.562;2024-03-23T14:28:33;2.70;;;1.40;;
50219;SDS011;36110;51.536;7.562;2024-03-23T14:31:00;6.95;;;2.08;;
50219;SDS011;36110;51.536;7.562;2024-03-23T14:33:25;5.38;;;1.80;;
50219;SDS011;36110;51.536;7.562;2024-03-23T14:35:54;4.20;;;1.67;;
50219;SDS011;36110;51.536;7.562;2024-03-23T14:38:23;3.25;;;1.63;;
50219;SDS011;36110;51.536;7.562;2024-03-23T14:40:49;3.20;;;1.73;;
50219;SDS011;36110;51.536;7.562;2024-03-23T14:43:14;6.65;;;2.85;;
50219;SDS011;36110;51.536;7.562;2024-03-23T14:48:36;5.07;;;1.65;;
50219;SDS011;36110;51.536;7.562;2024-03-23T14:51:02;4.63;;;2.05;;
50219;SDS011;36110;51.536;7.562;2024-03-23T14:53:34;5.47;;;1.85;;
50219;SDS011;36110;51.536;7.562;2024-03-23T14:56:01;3.15;;;1.70;;
50219;SDS011;36110;51.536;7.562;2024-03-23T14:58:27;4.13;;;1.77;;
50219;SDS011;36110;51.536;7.562;2024-03-23T15:00:52;4.90;;;1.63;;
50219;SDS011;36110;51.536;7.562;2024-03-23T15:03:18;4.80;;;1.88;;
50219;SDS011;36110;51.536;7.562;2024-03-23T15:05:57;5.25;;;1.83;;
50219;SDS011;36110;51.536;7.562;2024-03-23T15:08:24;4.70;;;1.65;;
50219;SDS011;36110;51.536;7.562;2024-03-23T15:10:50;3.85;;;1.52;;
50219;SDS011;36110;51.536;7.562;2024-03-23T15:13:15;5.28;;;2.00;;
50219;SDS011;36110;51.536;7.562;2024-03-23T15:15:41;7.22;;;1.67;;
50219;SDS011;36110;51.536;7.562;2024-03-23T15:18:12;6.45;;;2.03;;
50219;SDS011;36110;51.536;7.562;2024-03-23T15:20:40;7.00;;;1.90;;
50219;SDS011;36110;51.536;7.562;2024-03-23T15:23:16;4.60;;;1.77;;
50219;SDS011;36110;51.536;7.562;2024-03-23T15:25:41;2.75;;;1.30;;
50219;SDS011;36110;51.536;7.562;2024-03-23T15:28:07;3.58;;;1.48;;
50219;SDS011;36110;51.536;7.562;2024-03-23T15:30:32;5.57;;;1.70;;
50219;SDS011;36110;51.536;7.562;2024-03-23T15:32:57;5.80;;;1.85;;
50219;SDS011;36110;51.536;7.562;2024-03-23T15:35:23;11.60;;;2.83;;
50219;SDS011;36110;51.536;7.562;2024-03-23T15:37:48;3.75;;;1.58;;
50219;SDS011;36110;51.536;7.562;2024-03-23T15:40:14;4.43;;;2.05;;
50219;SDS011;36110;51.536;7.562;2024-03-23T15:42:39;4.45;;;1.83;;
50219;SDS011;36110;51.536;7.562;2024-03-23T15:45:08;7.03;;;1.55;;
50219;SDS011;36110;51.536;7.562;2024-03-23T15:47:34;4.28;;;1.42;;
50219;SDS011;36110;51.536;7.562;2024-03-23T15:50:00;3.63;;;2.00;;
50219;SDS011;36110;51.536;7.562;2024-03-23T15:52:25;9.50;;;2.05;;
50219;SDS011;36110;51.536;7.562;2024-03-23T15:54:51;6.03;;;1.77;;